sensor_id;sensor_type;location;lat;lon;timestamp;P1;durP1;ratioP1;P2;durP2;ratioP2
31206;SDS011;17834;52.992;8.856;2023-07-31T00:01:59;6.78;;;2.03;;
31206;SDS011;17834;52.992;8.856;2023-07-31T00:04:25;5.32;;;1.58;;
31206;SDS011;17834;52.992;8.856;2023-07-31T00:06:50;6.90;;;2.60;;
31206;SDS011;17834;52.992;8.856;2023-07-31T00:09:16;4.93;;;2.25;;
31206;SDS011;17834;52.992;8.856;2023-07-31T00:11:41;6.82;;;2.30;;
31206;SDS011;17834;52.992;8.856;2023-07-31T00:14:07;6.50;;;2.15;;
31206;SDS011;17834;52.992;8.856;2023-07-31T00:16:33;7.00;;;2.80;;
31206;SDS011;17834;52.992;8.856;2023-07-31T00:18:58;3.85;;;2.08;;
31206;SDS011;17834;52.992;8.856;2023-07-31T00:21:24;8.98;;;2.30;;
31206;SDS011;17834;52.992;8.856;2023-07-31T00:23:49;6.57;;;1.92;;
31206;SDS011;17834;52.992;8.856;2023-07-31T00:26:15;5.30;;;2.53;;
31206;SDS011;17834;52.992;8.856;2023-07-31T00:28:40;5.63;;;2.28;;
31206;SDS011;17834;52.992;8.856;2023-07-31T00:31:06;6.50;;;2.00;;
31206;SDS011;17834;52.992;8.856;2023-07-31T00:33:31;3.65;;;1.90;;
31206;SDS011;17834;52.992;8.856;2023-07-31T00:35:59;5.10;;;2.10;;
31206;SDS011;17834;52.992;8.856;2023-07-31T00:38:24;5.57;;;1.95;;
31206;SDS011;17834;52.992;8.856;2023-07-31T00:40:50;5.05;;;1.92;;
31206;SDS011;17834;52.992;8.856;2023-07-31T00:43:15;6.18;;;2.10;;
31206;SDS011;17834;52.992;8.856;2023-07-31T00:45:41;6.07;;;2.15;;
31206;SDS011;17834;52.992;8.856;2023-07-31T00:48:07;7.07;;;1.83;;
31206;SDS011;17834;52.992;8.856;2023-07-31T00:50:33;6.32;;;1.98;;
31206;SDS011;17834;52.992;8.856;2023-07-31T00:53:00;5.20;;;1.90;;
31206;SDS011;17834;52.992;8.856;2023-07-31T00:55:25;4.90;;;1.88;;
31206;SDS011;17834;52.992;8.856;2023-07-31T00:57:51;4.70;;;1.70;;
31206;SDS011;17834;52.992;8.856;2023-07-31T01:00:20;4.90;;;1.90;;
31206;SDS011;17834;52.992;8.856;2023-07-31T01:02:46;3.83;;;1.73;;
31206;SDS011;17834;52.992;8.856;2023-07-31T01:05:13;3.65;;;1.92;;
31206;SDS011;17834;52.992;8.856;2023-07-31T01:07:44;8.27;;;1.95;;
31206;SDS011;17834;52.992;8.856;2023-07-31T01:10:20;2.45;;;1.30;;
31206;SDS011;17834;52.992;8.856;2023-07-31T01:12:48;2.75;;;1.50;;
31206;SDS011;17834;52.992;8.856;2023-07-31T01:15:17;3.85;;;1.45;;
31206;SDS011;17834;52.992;8.856;2023-07-31T01:17:43;3.08;;;1.38;;
31206;SDS011;17834;52.992;8.856;2023-07-31T01:22:46;3.80;;;1.70;;
31206;SDS011;17834;52.992;8.856;2023-07-31T01:25:44;3.88;;;1.77;;
31206;SDS011;17834;52.992;8.856;2023-07-31T01:28:14;7.30;;;2.50;;
31206;SDS011;17834;52.992;8.856;2023-07-31T01:30:47;3.10;;;1.45;;
31206;SDS011;17834;52.992;8.856;2023-07-31T01:33:14;3.15;;;1.58;;
31206;SDS011;17834;52.992;8.856;2023-07-31T01:35:42;6.03;;;1.70;;
31206;SDS011;17834;52.992;8.856;2023-07-31T01:38:11;4.10;;;1.52;;
31206;SDS011;17834;52.992;8.856;2023-07-31T01:40:37;3.10;;;1.27;;
31206;SDS011;17834;52.992;8.856;2023-07-31T01:43:02;4.85;;;1.77;;
31206;SDS011;17834;52.992;8.856;2023-07-31T01:45:28;5.60;;;2.15;;
31206;SDS011;17834;52.992;8.856;2023-07-31T01:47:53;3.08;;;1.83;;
31206;SDS011;17834;52.992;8.856;2023-07-31T01:50:19;4.35;;;1.77;;
31206;SDS011;17834;52.992;8.856;2023-07-31T01:52:44;5.18;;;1.88;;
31206;SDS011;17834;52.992;8.856;2023-07-31T01:55:10;2.90;;;1.60;;
31206;SDS011;17834;52.992;8.856;2023-07-31T01:57:36;3.38;;;1.80;;
31206;SDS011;17834;52.992;8.856;2023-07-31T02:00:02;5.30;;;1.67;;
31206;SDS011;17834;52.992;8.856;2023-07-31T02:02:28;3.30;;;1.77;;
31206;SDS011;17834;52.992;8.856;2023-07-31T02:04:54;3.13;;;1.55;;
31206;SDS011;17834;52.992;8.856;2023-07-31T02:07:19;2.45;;;1.38;;
31206;SDS011;17834;52.992;8.856;2023-07-31T02:09:45;3.33;;;2.15;;
31206;SDS011;17834;52.992;8.856;2023-07-31T02:12:12;2.75;;;1.40;;
31206;SDS011;17834;52.992;8.856;2023-07-31T02:14:39;5.72;;;1.90;;
31206;SDS011;17834;52.992;8.856;2023-07-31T02:17:05;5.10;;;3.33;;
31206;SDS011;17834;52.992;8.856;2023-07-31T02:19:31;4.88;;;2.38;;
31206;SDS011;17834;52.992;8.856;2023-07-31T02:21:56;2.60;;;1.50;;
31206;SDS011;17834;52.992;8.856;2023-07-31T02:24:22;3.53;;;1.60;;
31206;SDS011;17834;52.992;8.856;2023-07-31T02:26:47;3.90;;;1.83;;
31206;SDS011;17834;52.992;8.856;2023-07-31T02:29:13;3.40;;;2.05;;
31206;SDS011;17834;52.992;8.856;2023-07-31T02:31:38;6.28;;;2.10;;
31206;SDS011;17834;52.992;8.856;2023-07-31T02:34:04;5.35;;;2.00;;
31206;SDS011;17834;52.992;8.856;2023-07-31T02:36:29;3.97;;;1.92;;
31206;SDS011;17834;52.992;8.856;2023-07-31T02:38:55;6.43;;;2.13;;
31206;SDS011;17834;52.992;8.856;2023-07-31T02:41:21;3.72;;;1.92;;
31206;SDS011;17834;52.992;8.856;2023-07-31T02:43:46;3.40;;;1.90;;
31206;SDS011;17834;52.992;8.856;2023-07-31T02:46:12;4.10;;;2.05;;
31206;SDS011;17834;52.992;8.856;2023-07-31T02:48:37;3.72;;;1.98;;
31206;SDS011;17834;52.992;8.856;2023-07-31T02:51:03;5.88;;;2.05;;
31206;SDS011;17834;52.992;8.856;2023-07-31T02:53:28;3.40;;;1.60;;
31206;SDS011;17834;52.992;8.856;2023-07-31T02:55:54;4.00;;;1.80;;
31206;SDS011;17834;52.992;8.856;2023-07-31T02:58:19;4.22;;;1.80;;
31206;SDS011;17834;52.992;8.856;2023-07-31T03:00:45;3.30;;;1.70;;
31206;SDS011;17834;52.992;8.856;2023-07-31T03:03:11;4.22;;;2.10;;
31206;SDS011;17834;52.992;8.856;2023-07-31T03:05:36;6.00;;;1.83;;
31206;SDS011;17834;52.992;8.856;2023-07-31T03:08:02;6.78;;;3.08;;
31206;SDS011;17834;52.992;8.856;2023-07-31T03:10:28;3.47;;;1.73;;
31206;SDS011;17834;52.992;8.856;2023-07-31T03:12:54;2.78;;;1.58;;
31206;SDS011;17834;52.992;8.856;2023-07-31T03:15:20;4.07;;;1.42;;
31206;SDS011;17834;52.992;8.856;2023-07-31T03:17:45;4.38;;;1.92;;
31206;SDS011;17834;52.992;8.856;2023-07-31T03:20:11;4.90;;;1.75;;
31206;SDS011;17834;52.992;8.856;2023-07-31T03:22:36;3.97;;;2.28;;
31206;SDS011;17834;52.992;8.856;2023-07-31T03:25:03;4.43;;;2.00;;
31206;SDS011;17834;52.992;8.856;2023-07-31T03:27:28;4.32;;;1.60;;
31206;SDS011;17834;52.992;8.856;2023-07-31T03:29:54;4.22;;;1.73;;
31206;SDS011;17834;52.992;8.856;2023-07-31T03:32:20;2.90;;;1.60;;
31206;SDS011;17834;52.992;8.856;2023-07-31T03:34:45;3.95;;;2.22;;
31206;SDS011;17834;52.992;8.856;2023-07-31T03:37:11;4.28;;;2.20;;
31206;SDS011;17834;52.992;8.856;2023-07-31T03:39:36;3.17;;;2.13;;
31206;SDS011;17834;52.992;8.856;2023-07-31T03:42:02;4.05;;;2.35;;
31206;SDS011;17834;52.992;8.856;2023-07-31T03:44:28;3.85;;;2.13;;
31206;SDS011;17834;52.992;8.856;2023-07-31T03:46:53;3.53;;;2.05;;
31206;SDS011;17834;52.992;8.856;2023-07-31T03:49:19;3.42;;;1.98;;
31206;SDS011;17834;52.992;8.856;2023-07-31T03:51:44;3.55;;;1.92;;
31206;SDS011;17834;52.992;8.856;2023-07-31T03:54:10;5.57;;;2.20;;
31206;SDS011;17834;52.992;8.856;2023-07-31T03:56:35;3.50;;;2.00;;
31206;SDS011;17834;52.992;8.856;2023-07-31T03:59:03;4.90;;;2.22;;
31206;SDS011;17834;52.992;8.856;2023-07-31T04:01:28;5.13;;;2.15;;
31206;SDS011;17834;52.992;8.856;2023-07-31T04:03:54;3.67;;;2.20;;
31206;SDS011;17834;52.992;8.856;2023-07-31T04:06:19;3.97;;;2.17;;
31206;SDS011;17834;52.992;8.856;2023-07-31T04:08:45;5.43;;;3.03;;
31206;SDS011;17834;52.992;8.856;2023-07-31T04:11:10;4.65;;;2.58;;
31206;SDS011;17834;52.992;8.856;2023-07-31T04:13:37;5.05;;;3.03;;
31206;SDS011;17834;52.992;8.856;2023-07-31T04:16:03;5.88;;;3.13;;
31206;SDS011;17834;52.992;8.856;2023-07-31T04:18:29;5.10;;;2.80;;
31206;SDS011;17834;52.992;8.856;2023-07-31T04:20:56;11.10;;;5.13;;
31206;SDS011;17834;52.992;8.856;2023-07-31T04:23:23;6.50;;;3.63;;
31206;SDS011;17834;52.992;8.856;2023-07-31T04:25:49;5.72;;;2.90;;
31206;SDS011;17834;52.992;8.856;2023-07-31T04:28:14;6.20;;;3.17;;
31206;SDS011;17834;52.992;8.856;2023-07-31T04:30:40;5.55;;;2.97;;
31206;SDS011;17834;52.992;8.856;2023-07-31T04:33:05;4.80;;;2.38;;
31206;SDS011;17834;52.992;8.856;2023-07-31T04:35:31;6.45;;;2.88;;
31206;SDS011;17834;52.992;8.856;2023-07-31T04:37:56;3.90;;;2.50;;
31206;SDS011;17834;52.992;8.856;2023-07-31T04:40:22;4.00;;;2.00;;
31206;SDS011;17834;52.992;8.856;2023-07-31T04:42:47;5.10;;;2.10;;
31206;SDS011;17834;52.992;8.856;2023-07-31T04:45:13;3.92;;;1.98;;
31206;SDS011;17834;52.992;8.856;2023-07-31T04:47:39;7.45;;;4.03;;
31206;SDS011;17834;52.992;8.856;2023-07-31T04:50:04;4.70;;;2.90;;
31206;SDS011;17834;52.992;8.856;2023-07-31T04:52:30;4.82;;;2.00;;
31206;SDS011;17834;52.992;8.856;2023-07-31T04:54:56;2.40;;;1.50;;
31206;SDS011;17834;52.992;8.856;2023-07-31T04:57:21;3.92;;;1.25;;
31206;SDS011;17834;52.992;8.856;2023-07-31T04:59:47;2.28;;;1.20;;
31206;SDS011;17834;52.992;8.856;2023-07-31T05:02:12;2.63;;;1.20;;
31206;SDS011;17834;52.992;8.856;2023-07-31T05:04:38;3.30;;;1.30;;
31206;SDS011;17834;52.992;8.856;2023-07-31T05:07:04;3.58;;;1.38;;
31206;SDS011;17834;52.992;8.856;2023-07-31T05:09:30;3.78;;;2.13;;
31206;SDS011;17834;52.992;8.856;2023-07-31T05:11:55;3.10;;;1.67;;
31206;SDS011;17834;52.992;8.856;2023-07-31T05:14:21;2.55;;;1.50;;
31206;SDS011;17834;52.992;8.856;2023-07-31T05:16:46;2.22;;;1.30;;
31206;SDS011;17834;52.992;8.856;2023-07-31T05:19:12;1.98;;;1.30;;
31206;SDS011;17834;52.992;8.856;2023-07-31T05:21:37;3.83;;;1.90;;
31206;SDS011;17834;52.992;8.856;2023-07-31T05:24:03;2.50;;;1.40;;
31206;SDS011;17834;52.992;8.856;2023-07-31T05:26:29;3.03;;;1.50;;
31206;SDS011;17834;52.992;8.856;2023-07-31T05:28:55;2.22;;;1.27;;
31206;SDS011;17834;52.992;8.856;2023-07-31T05:31:20;2.22;;;1.20;;
31206;SDS011;17834;52.992;8.856;2023-07-31T05:33:47;2.65;;;1.20;;
31206;SDS011;17834;52.992;8.856;2023-07-31T05:36:14;2.30;;;1.20;;
31206;SDS011;17834;52.992;8.856;2023-07-31T05:38:40;2.97;;;1.35;;
31206;SDS011;17834;52.992;8.856;2023-07-31T05:41:07;3.00;;;1.52;;
31206;SDS011;17834;52.992;8.856;2023-07-31T05:43:32;2.80;;;1.42;;
31206;SDS011;17834;52.992;8.856;2023-07-31T05:45:58;2.50;;;1.10;;
31206;SDS011;17834;52.992;8.856;2023-07-31T05:48:23;3.17;;;1.58;;
31206;SDS011;17834;52.992;8.856;2023-07-31T05:50:49;2.83;;;1.40;;
31206;SDS011;17834;52.992;8.856;2023-07-31T05:53:14;3.65;;;1.35;;
31206;SDS011;17834;52.992;8.856;2023-07-31T05:55:40;3.58;;;1.30;;
31206;SDS011;17834;52.992;8.856;2023-07-31T05:58:05;2.55;;;1.35;;
31206;SDS011;17834;52.992;8.856;2023-07-31T06:00:31;3.65;;;1.30;;
31206;SDS011;17834;52.992;8.856;2023-07-31T06:02:57;1.75;;;1.00;;
31206;SDS011;17834;52.992;8.856;2023-07-31T06:05:23;1.80;;;0.90;;
31206;SDS011;17834;52.992;8.856;2023-07-31T06:07:49;2.75;;;1.23;;
31206;SDS011;17834;52.992;8.856;2023-07-31T06:10:15;4.72;;;1.13;;
31206;SDS011;17834;52.992;8.856;2023-07-31T06:12:40;2.20;;;1.00;;
31206;SDS011;17834;52.992;8.856;2023-07-31T06:15:06;2.35;;;1.10;;
31206;SDS011;17834;52.992;8.856;2023-07-31T06:17:32;1.95;;;0.90;;
31206;SDS011;17834;52.992;8.856;2023-07-31T06:19:58;2.15;;;1.10;;
31206;SDS011;17834;52.992;8.856;2023-07-31T06:22:23;2.65;;;0.88;;
31206;SDS011;17834;52.992;8.856;2023-07-31T06:24:49;1.88;;;0.80;;
31206;SDS011;17834;52.992;8.856;2023-07-31T06:27:14;1.60;;;0.80;;
31206;SDS011;17834;52.992;8.856;2023-07-31T06:29:40;1.83;;;0.70;;
31206;SDS011;17834;52.992;8.856;2023-07-31T06:32:06;1.33;;;0.70;;
31206;SDS011;17834;52.992;8.856;2023-07-31T06:34:32;1.48;;;0.60;;
31206;SDS011;17834;52.992;8.856;2023-07-31T06:36:57;1.05;;;0.50;;
31206;SDS011;17834;52.992;8.856;2023-07-31T06:39:23;3.42;;;0.90;;
31206;SDS011;17834;52.992;8.856;2023-07-31T06:41:48;1.35;;;0.50;;
31206;SDS011;17834;52.992;8.856;2023-07-31T06:44:14;1.15;;;0.50;;
31206;SDS011;17834;52.992;8.856;2023-07-31T06:46:39;0.52;;;0.30;;
31206;SDS011;17834;52.992;8.856;2023-07-31T06:49:05;1.33;;;0.63;;
31206;SDS011;17834;52.992;8.856;2023-07-31T06:51:31;0.80;;;0.40;;
31206;SDS011;17834;52.992;8.856;2023-07-31T06:53:57;2.45;;;0.60;;
31206;SDS011;17834;52.992;8.856;2023-07-31T06:56:23;0.73;;;0.30;;
31206;SDS011;17834;52.992;8.856;2023-07-31T06:58:48;1.10;;;0.40;;
31206;SDS011;17834;52.992;8.856;2023-07-31T07:01:14;0.85;;;0.40;;
31206;SDS011;17834;52.992;8.856;2023-07-31T07:03:40;0.90;;;0.43;;
31206;SDS011;17834;52.992;8.856;2023-07-31T07:06:05;1.67;;;0.50;;
31206;SDS011;17834;52.992;8.856;2023-07-31T07:08:31;3.10;;;0.60;;
31206;SDS011;17834;52.992;8.856;2023-07-31T07:10:56;2.10;;;0.73;;
31206;SDS011;17834;52.992;8.856;2023-07-31T07:13:22;1.13;;;0.63;;
31206;SDS011;17834;52.992;8.856;2023-07-31T07:15:48;1.95;;;0.98;;
31206;SDS011;17834;52.992;8.856;2023-07-31T07:18:14;4.55;;;1.17;;
31206;SDS011;17834;52.992;8.856;2023-07-31T07:20:40;2.63;;;1.15;;
31206;SDS011;17834;52.992;8.856;2023-07-31T07:23:11;3.42;;;1.58;;
31206;SDS011;17834;52.992;8.856;2023-07-31T07:25:37;3.00;;;1.40;;
31206;SDS011;17834;52.992;8.856;2023-07-31T07:28:03;5.93;;;1.65;;
31206;SDS011;17834;52.992;8.856;2023-07-31T07:30:29;3.85;;;1.85;;
31206;SDS011;17834;52.992;8.856;2023-07-31T07:32:54;4.28;;;2.30;;
31206;SDS011;17834;52.992;8.856;2023-07-31T07:35:20;5.25;;;2.45;;
31206;SDS011;17834;52.992;8.856;2023-07-31T07:37:47;5.22;;;2.28;;
31206;SDS011;17834;52.992;8.856;2023-07-31T07:40:14;5.57;;;2.45;;
31206;SDS011;17834;52.992;8.856;2023-07-31T07:42:40;5.82;;;2.80;;
31206;SDS011;17834;52.992;8.856;2023-07-31T07:45:06;7.32;;;3.00;;
31206;SDS011;17834;52.992;8.856;2023-07-31T07:47:32;9.50;;;3.20;;
31206;SDS011;17834;52.992;8.856;2023-07-31T07:49:58;5.88;;;2.95;;
31206;SDS011;17834;52.992;8.856;2023-07-31T07:52:23;11.20;;;3.67;;
31206;SDS011;17834;52.992;8.856;2023-07-31T07:54:49;10.07;;;3.67;;
31206;SDS011;17834;52.992;8.856;2023-07-31T07:57:15;10.88;;;4.60;;
31206;SDS011;17834;52.992;8.856;2023-07-31T07:59:40;10.80;;;5.40;;
31206;SDS011;17834;52.992;8.856;2023-07-31T08:02:06;9.95;;;4.35;;
31206;SDS011;17834;52.992;8.856;2023-07-31T08:04:32;14.23;;;5.03;;
31206;SDS011;17834;52.992;8.856;2023-07-31T08:06:57;10.98;;;4.93;;
31206;SDS011;17834;52.992;8.856;2023-07-31T08:09:23;15.52;;;6.00;;
31206;SDS011;17834;52.992;8.856;2023-07-31T08:11:48;12.00;;;5.57;;
31206;SDS011;17834;52.992;8.856;2023-07-31T08:14:14;15.38;;;5.68;;
31206;SDS011;17834;52.992;8.856;2023-07-31T08:16:39;12.95;;;5.47;;
31206;SDS011;17834;52.992;8.856;2023-07-31T08:19:05;15.23;;;5.80;;
31206;SDS011;17834;52.992;8.856;2023-07-31T08:21:31;15.25;;;5.75;;
31206;SDS011;17834;52.992;8.856;2023-07-31T08:23:57;12.75;;;6.22;;
31206;SDS011;17834;52.992;8.856;2023-07-31T08:26:23;16.52;;;5.63;;
31206;SDS011;17834;52.992;8.856;2023-07-31T08:28:48;17.13;;;6.03;;
31206;SDS011;17834;52.992;8.856;2023-07-31T08:31:14;12.27;;;5.40;;
31206;SDS011;17834;52.992;8.856;2023-07-31T08:33:39;15.73;;;5.95;;
31206;SDS011;17834;52.992;8.856;2023-07-31T08:36:05;15.75;;;5.90;;
31206;SDS011;17834;52.992;8.856;2023-07-31T08:38:31;14.32;;;6.07;;
31206;SDS011;17834;52.992;8.856;2023-07-31T08:40:57;14.25;;;5.40;;
31206;SDS011;17834;52.992;8.856;2023-07-31T08:43:26;15.20;;;5.43;;
31206;SDS011;17834;52.992;8.856;2023-07-31T08:45:52;13.40;;;5.47;;
31206;SDS011;17834;52.992;8.856;2023-07-31T08:48:19;13.40;;;5.30;;
31206;SDS011;17834;52.992;8.856;2023-07-31T08:50:45;12.02;;;5.90;;
31206;SDS011;17834;52.992;8.856;2023-07-31T08:53:11;13.80;;;5.45;;
31206;SDS011;17834;52.992;8.856;2023-07-31T08:55:37;17.55;;;5.53;;
31206;SDS011;17834;52.992;8.856;2023-07-31T08:58:03;11.70;;;4.60;;
31206;SDS011;17834;52.992;8.856;2023-07-31T09:00:30;11.63;;;4.55;;
31206;SDS011;17834;52.992;8.856;2023-07-31T09:02:57;8.88;;;3.85;;
31206;SDS011;17834;52.992;8.856;2023-07-31T09:05:28;7.25;;;4.15;;
31206;SDS011;17834;52.992;8.856;2023-07-31T09:07:56;11.43;;;4.25;;
31206;SDS011;17834;52.992;8.856;2023-07-31T09:10:23;10.02;;;3.80;;
31206;SDS011;17834;52.992;8.856;2023-07-31T09:12:49;8.95;;;3.92;;
31206;SDS011;17834;52.992;8.856;2023-07-31T09:15:16;12.45;;;3.95;;
31206;SDS011;17834;52.992;8.856;2023-07-31T09:17:42;9.27;;;3.58;;
31206;SDS011;17834;52.992;8.856;2023-07-31T09:20:14;7.07;;;2.95;;
31206;SDS011;17834;52.992;8.856;2023-07-31T09:22:41;6.95;;;3.30;;
31206;SDS011;17834;52.992;8.856;2023-07-31T09:25:15;7.47;;;3.13;;
31206;SDS011;17834;52.992;8.856;2023-07-31T09:27:52;6.78;;;3.15;;
31206;SDS011;17834;52.992;8.856;2023-07-31T09:30:27;5.15;;;2.70;;
31206;SDS011;17834;52.992;8.856;2023-07-31T09:33:03;7.70;;;3.15;;
31206;SDS011;17834;52.992;8.856;2023-07-31T09:35:34;5.00;;;2.40;;
31206;SDS011;17834;52.992;8.856;2023-07-31T09:38:04;8.00;;;3.70;;
31206;SDS011;17834;52.992;8.856;2023-07-31T09:40:32;10.90;;;2.42;;
31206;SDS011;17834;52.992;8.856;2023-07-31T09:43:02;7.85;;;2.75;;
31206;SDS011;17834;52.992;8.856;2023-07-31T09:45:30;6.32;;;2.40;;
31206;SDS011;17834;52.992;8.856;2023-07-31T09:48:01;6.55;;;2.60;;
31206;SDS011;17834;52.992;8.856;2023-07-31T09:50:27;5.90;;;2.72;;
31206;SDS011;17834;52.992;8.856;2023-07-31T09:52:54;5.63;;;2.28;;
31206;SDS011;17834;52.992;8.856;2023-07-31T09:55:19;4.30;;;2.10;;
31206;SDS011;17834;52.992;8.856;2023-07-31T09:57:46;5.55;;;2.00;;
31206;SDS011;17834;52.992;8.856;2023-07-31T10:00:14;10.27;;;2.15;;
31206;SDS011;17834;52.992;8.856;2023-07-31T10:02:41;5.82;;;1.63;;
31206;SDS011;17834;52.992;8.856;2023-07-31T10:05:08;6.50;;;2.25;;
31206;SDS011;17834;52.992;8.856;2023-07-31T10:07:36;5.70;;;2.13;;
31206;SDS011;17834;52.992;8.856;2023-07-31T10:10:06;4.22;;;1.95;;
31206;SDS011;17834;52.992;8.856;2023-07-31T10:12:33;4.00;;;1.33;;
31206;SDS011;17834;52.992;8.856;2023-07-31T10:14:59;7.07;;;1.70;;
31206;SDS011;17834;52.992;8.856;2023-07-31T10:17:25;3.13;;;1.10;;
31206;SDS011;17834;52.992;8.856;2023-07-31T10:19:51;3.55;;;1.25;;
31206;SDS011;17834;52.992;8.856;2023-07-31T10:22:19;5.88;;;1.50;;
31206;SDS011;17834;52.992;8.856;2023-07-31T10:24:46;4.05;;;1.25;;
31206;SDS011;17834;52.992;8.856;2023-07-31T10:27:13;4.05;;;1.65;;
31206;SDS011;17834;52.992;8.856;2023-07-31T10:29:39;2.83;;;1.38;;
31206;SDS011;17834;52.992;8.856;2023-07-31T10:32:08;3.67;;;1.27;;
31206;SDS011;17834;52.992;8.856;2023-07-31T10:34:36;3.70;;;1.10;;
31206;SDS011;17834;52.992;8.856;2023-07-31T10:37:19;2.55;;;0.95;;
31206;SDS011;17834;52.992;8.856;2023-07-31T10:39:55;3.20;;;1.00;;
31206;SDS011;17834;52.992;8.856;2023-07-31T10:42:32;2.95;;;1.20;;
31206;SDS011;17834;52.992;8.856;2023-07-31T10:44:59;2.35;;;1.02;;
31206;SDS011;17834;52.992;8.856;2023-07-31T10:47:26;2.55;;;0.82;;
31206;SDS011;17834;52.992;8.856;2023-07-31T10:49:51;3.17;;;0.77;;
31206;SDS011;17834;52.992;8.856;2023-07-31T10:52:20;1.58;;;0.68;;
31206;SDS011;17834;52.992;8.856;2023-07-31T10:55:13;1.00;;;0.40;;
31206;SDS011;17834;52.992;8.856;2023-07-31T10:57:44;1.88;;;0.50;;
31206;SDS011;17834;52.992;8.856;2023-07-31T11:05:40;1.23;;;0.50;;
31206;SDS011;17834;52.992;8.856;2023-07-31T11:08:20;1.23;;;0.40;;
31206;SDS011;17834;52.992;8.856;2023-07-31T11:11:26;0.80;;;0.40;;
31206;SDS011;17834;52.992;8.856;2023-07-31T11:13:49;0.93;;;0.30;;
31206;SDS011;17834;52.992;8.856;2023-07-31T11:16:19;1.08;;;0.28;;
31206;SDS011;17834;52.992;8.856;2023-07-31T11:18:46;0.28;;;0.10;;
31206;SDS011;17834;52.992;8.856;2023-07-31T11:21:17;0.57;;;0.30;;
31206;SDS011;17834;52.992;8.856;2023-07-31T11:23:47;3.22;;;0.30;;
31206;SDS011;17834;52.992;8.856;2023-07-31T11:26:14;0.93;;;0.30;;
31206;SDS011;17834;52.992;8.856;2023-07-31T11:28:40;0.30;;;0.15;;
31206;SDS011;17834;52.992;8.856;2023-07-31T11:31:08;0.43;;;0.25;;
31206;SDS011;17834;52.992;8.856;2023-07-31T11:33:34;0.25;;;0.10;;
31206;SDS011;17834;52.992;8.856;2023-07-31T11:36:00;0.70;;;0.30;;
31206;SDS011;17834;52.992;8.856;2023-07-31T11:38:29;0.47;;;0.20;;
31206;SDS011;17834;52.992;8.856;2023-07-31T11:40:57;0.40;;;0.20;;
31206;SDS011;17834;52.992;8.856;2023-07-31T11:43:31;0.85;;;0.30;;
31206;SDS011;17834;52.992;8.856;2023-07-31T11:45:57;0.40;;;0.20;;
31206;SDS011;17834;52.992;8.856;2023-07-31T11:48:28;0.38;;;0.20;;
31206;SDS011;17834;52.992;8.856;2023-07-31T11:50:58;0.88;;;0.60;;
31206;SDS011;17834;52.992;8.856;2023-07-31T11:53:44;0.60;;;0.20;;
31206;SDS011;17834;52.992;8.856;2023-07-31T11:56:16;0.50;;;0.28;;
31206;SDS011;17834;52.992;8.856;2023-07-31T11:58:43;1.00;;;0.40;;
31206;SDS011;17834;52.992;8.856;2023-07-31T12:01:11;0.60;;;0.28;;
31206;SDS011;17834;52.992;8.856;2023-07-31T12:03:40;0.77;;;0.30;;
31206;SDS011;17834;52.992;8.856;2023-07-31T12:06:07;0.30;;;0.25;;
31206;SDS011;17834;52.992;8.856;2023-07-31T12:08:33;0.40;;;0.20;;
31206;SDS011;17834;52.992;8.856;2023-07-31T12:11:02;0.40;;;0.20;;
31206;SDS011;17834;52.992;8.856;2023-07-31T12:13:30;0.93;;;0.20;;
31206;SDS011;17834;52.992;8.856;2023-07-31T12:15:57;0.50;;;0.30;;
31206;SDS011;17834;52.992;8.856;2023-07-31T12:18:25;2.13;;;0.40;;
31206;SDS011;17834;52.992;8.856;2023-07-31T12:20:59;0.30;;;0.20;;
31206;SDS011;17834;52.992;8.856;2023-07-31T12:23:27;0.47;;;0.20;;
31206;SDS011;17834;52.992;8.856;2023-07-31T12:26:11;0.50;;;0.22;;
31206;SDS011;17834;52.992;8.856;2023-07-31T12:28:44;0.68;;;0.30;;
31206;SDS011;17834;52.992;8.856;2023-07-31T12:31:18;0.35;;;0.22;;
31206;SDS011;17834;52.992;8.856;2023-07-31T12:33:46;0.77;;;0.60;;
31206;SDS011;17834;52.992;8.856;2023-07-31T12:36:15;0.88;;;0.50;;
31206;SDS011;17834;52.992;8.856;2023-07-31T12:38:42;0.65;;;0.40;;
31206;SDS011;17834;52.992;8.856;2023-07-31T12:41:07;0.63;;;0.30;;
31206;SDS011;17834;52.992;8.856;2023-07-31T12:43:34;0.80;;;0.40;;
31206;SDS011;17834;52.992;8.856;2023-07-31T12:46:00;1.35;;;0.47;;
31206;SDS011;17834;52.992;8.856;2023-07-31T12:48:25;1.30;;;0.50;;
31206;SDS011;17834;52.992;8.856;2023-07-31T12:50:51;1.40;;;0.63;;
31206;SDS011;17834;52.992;8.856;2023-07-31T12:53:16;1.10;;;0.40;;
31206;SDS011;17834;52.992;8.856;2023-07-31T12:55:42;0.98;;;0.45;;
31206;SDS011;17834;52.992;8.856;2023-07-31T12:58:07;0.93;;;0.45;;
31206;SDS011;17834;52.992;8.856;2023-07-31T13:00:33;0.70;;;0.40;;
31206;SDS011;17834;52.992;8.856;2023-07-31T13:02:59;2.63;;;0.50;;
31206;SDS011;17834;52.992;8.856;2023-07-31T13:05:26;1.45;;;0.50;;
31206;SDS011;17834;52.992;8.856;2023-07-31T13:07:52;1.48;;;0.77;;
31206;SDS011;17834;52.992;8.856;2023-07-31T13:10:17;1.33;;;0.77;;
31206;SDS011;17834;52.992;8.856;2023-07-31T13:12:43;1.67;;;0.60;;
31206;SDS011;17834;52.992;8.856;2023-07-31T13:15:09;2.35;;;0.52;;
31206;SDS011;17834;52.992;8.856;2023-07-31T13:17:35;1.48;;;0.70;;
31206;SDS011;17834;52.992;8.856;2023-07-31T13:20:01;1.42;;;0.90;;
31206;SDS011;17834;52.992;8.856;2023-07-31T13:22:28;2.45;;;1.10;;
31206;SDS011;17834;52.992;8.856;2023-07-31T13:24:54;1.83;;;1.02;;
31206;SDS011;17834;52.992;8.856;2023-07-31T13:27:19;1.58;;;0.90;;
31206;SDS011;17834;52.992;8.856;2023-07-31T13:29:46;2.33;;;1.27;;
31206;SDS011;17834;52.992;8.856;2023-07-31T13:32:21;2.30;;;1.27;;
31206;SDS011;17834;52.992;8.856;2023-07-31T13:34:47;3.47;;;1.40;;
31206;SDS011;17834;52.992;8.856;2023-07-31T13:37:13;2.70;;;1.40;;
31206;SDS011;17834;52.992;8.856;2023-07-31T13:39:39;2.03;;;1.05;;
31206;SDS011;17834;52.992;8.856;2023-07-31T13:42:06;2.53;;;1.15;;
31206;SDS011;17834;52.992;8.856;2023-07-31T13:44:33;3.17;;;1.40;;
31206;SDS011;17834;52.992;8.856;2023-07-31T13:46:59;1.95;;;1.00;;
31206;SDS011;17834;52.992;8.856;2023-07-31T13:49:25;1.95;;;1.23;;
31206;SDS011;17834;52.992;8.856;2023-07-31T13:51:51;2.70;;;1.35;;
31206;SDS011;17834;52.992;8.856;2023-07-31T13:54:16;2.33;;;1.33;;
31206;SDS011;17834;52.992;8.856;2023-07-31T13:56:42;2.70;;;1.67;;
31206;SDS011;17834;52.992;8.856;2023-07-31T13:59:08;2.08;;;1.20;;
31206;SDS011;17834;52.992;8.856;2023-07-31T14:01:33;2.63;;;1.35;;
31206;SDS011;17834;52.992;8.856;2023-07-31T14:03:59;2.97;;;1.50;;
31206;SDS011;17834;52.992;8.856;2023-07-31T14:06:25;3.88;;;1.73;;
31206;SDS011;17834;52.992;8.856;2023-07-31T14:08:50;3.35;;;1.70;;
31206;SDS011;17834;52.992;8.856;2023-07-31T14:11:16;3.88;;;1.90;;
31206;SDS011;17834;52.992;8.856;2023-07-31T14:13:41;3.22;;;1.80;;
31206;SDS011;17834;52.992;8.856;2023-07-31T14:16:07;2.95;;;1.70;;
31206;SDS011;17834;52.992;8.856;2023-07-31T14:18:32;2.75;;;1.70;;
31206;SDS011;17834;52.992;8.856;2023-07-31T14:20:58;7.18;;;2.33;;
31206;SDS011;17834;52.992;8.856;2023-07-31T14:23:23;2.90;;;1.70;;
31206;SDS011;17834;52.992;8.856;2023-07-31T14:25:49;4.28;;;2.42;;
31206;SDS011;17834;52.992;8.856;2023-07-31T14:28:14;4.70;;;2.40;;
31206;SDS011;17834;52.992;8.856;2023-07-31T14:30:40;3.55;;;2.28;;
31206;SDS011;17834;52.992;8.856;2023-07-31T14:33:05;4.15;;;2.00;;
31206;SDS011;17834;52.992;8.856;2023-07-31T14:35:31;5.07;;;2.40;;
31206;SDS011;17834;52.992;8.856;2023-07-31T14:37:57;5.20;;;2.20;;
31206;SDS011;17834;52.992;8.856;2023-07-31T14:40:22;3.25;;;1.80;;
31206;SDS011;17834;52.992;8.856;2023-07-31T14:42:48;3.53;;;2.30;;
31206;SDS011;17834;52.992;8.856;2023-07-31T14:45:13;4.72;;;2.20;;
31206;SDS011;17834;52.992;8.856;2023-07-31T14:47:39;3.83;;;2.25;;
31206;SDS011;17834;52.992;8.856;2023-07-31T14:50:04;3.72;;;2.50;;
31206;SDS011;17834;52.992;8.856;2023-07-31T14:52:30;4.93;;;2.72;;